Time;durP1;ratioP1;P1;durP2;ratioP2;P2;SDS_P1;SDS_P2;PMS_P1;PMS_P2;Temp;Humidity;BMP_temperature;BMP_pressure;BME280_temperature;BME280_humidity;BME280_pressure;Samples;Min_cycle;Max_cycle;Signal;HPM_P1;HPM_P2
2022/10/10 00:02:11;;;;;;;24.58;7.93;;;;;;;7.20;87.22;100195.56;8500676;27;20039;-81
2022/10/10 00:06:13;;;;;;;20.35;7.38;;;;;;;7.17;87.35;100188.06;8503725;27;20150;-79
2022/10/10 00:10:14;;;;;;;19.20;7.72;;;;;;;7.13;87.44;100186.16;8526990;27;20169;-79
2022/10/10 00:14:15;;;;;;;19.00;7.80;;;;;;;7.08;87.72;100176.19;8457813;28;20047;-79
2022/10/10 00:18:16;;;;;;;19.88;7.03;;;;;;;7.07;87.96;100171.88;8442696;28;20062;-79
2022/10/10 00:22:17;;;;;;;15.20;7.07;;;;;;;7.06;87.83;100164.88;8459834;28;20134;-79
2022/10/10 00:26:18;;;;;;;19.20;7.32;;;;;;;7.05;88.00;100168.63;8456342;28;20056;-79
2022/10/10 00:30:19;;;;;;;19.10;7.68;;;;;;;7.03;88.16;100168.06;8428587;28;20600;-81
2022/10/10 00:34:20;;;;;;;25.50;8.07;;;;;;;6.97;88.14;100166.44;8454072;28;20044;-81
2022/10/10 00:38:21;;;;;;;17.50;7.03;;;;;;;6.93;88.52;100165.31;8442426;28;20062;-80
2022/10/10 00:42:22;;;;;;;17.63;8.07;;;;;;;6.89;88.55;100158.03;8450994;28;20048;-80
2022/10/10 00:46:24;;;;;;;19.77;7.47;;;;;;;6.86;88.34;100154.00;8441320;28;20768;-79
2022/10/10 00:50:26;;;;;;;19.48;7.78;;;;;;;6.79;88.55;100148.88;8468383;27;20051;-81
2022/10/10 00:54:27;;;;;;;20.65;7.13;;;;;;;6.70;89.00;100138.88;8508719;27;20043;-80
2022/10/10 00:58:28;;;;;;;20.70;7.45;;;;;;;6.66;89.21;100137.78;8506252;27;20051;-80
2022/10/10 01:02:29;;;;;;;22.50;7.15;;;;;;;6.61;89.41;100124.31;8507512;27;20487;-80
2022/10/10 01:06:31;;;;;;;24.52;8.15;;;;;;;6.57;89.71;100117.81;8508052;27;20051;-79
2022/10/10 01:10:38;;;;;;;24.05;7.47;;;;;;;6.54;89.88;100118.34;8484548;27;20039;-80
2022/10/10 01:15:10;;;;;;;16.33;7.72;;;;;;;6.52;89.91;100115.09;8495430;27;20043;-79
2022/10/10 01:19:23;;;;;;;17.35;8.38;;;;;;;6.50;89.94;100111.88;8483926;27;20039;-79
2022/10/10 01:23:34;;;;;;;23.70;7.85;;;;;;;6.49;90.13;100115.63;8500863;27;20050;-79
2022/10/10 01:27:42;;;;;;;20.73;7.45;;;;;;;6.49;90.21;100105.72;8504113;27;20074;-82
2022/10/10 01:31:45;;;;;;;20.35;8.40;;;;;;;6.49;90.30;100099.53;8492481;27;20031;-82
2022/10/10 01:36:05;;;;;;;19.77;7.68;;;;;;;6.45;90.23;100098.44;8489164;27;20045;-80
2022/10/10 01:40:06;;;;;;;17.67;7.68;;;;;;;6.42;90.46;100098.94;8488143;27;20061;-79
2022/10/10 01:44:07;;;;;;;22.73;9.02;;;;;;;6.35;90.53;100094.59;8509020;27;20042;-80
2022/10/10 01:48:08;;;;;;;22.40;8.00;;;;;;;6.31;90.52;100082.75;8508130;27;20078;-80
2022/10/10 01:52:40;;;;;;;20.42;7.30;;;;;;;6.28;90.58;100080.59;8451896;28;20048;-81
2022/10/10 01:56:51;;;;;;;20.13;7.68;;;;;;;6.26;90.83;100074.69;8447468;28;20046;-80
2022/10/10 02:01:09;;;;;;;15.07;7.97;;;;;;;6.25;90.90;100072.25;8433911;28;20050;-79
2022/10/10 02:05:34;;;;;;;23.38;7.70;;;;;;;6.25;90.93;100073.06;8398714;28;20064;-80
2022/10/10 02:09:38;;;;;;;20.05;8.65;;;;;;;6.21;90.77;100071.97;8451875;28;20056;-79
2022/10/10 02:13:51;;;;;;;25.13;8.35;;;;;;;6.15;91.15;100056.88;8428225;28;20036;-82
2022/10/10 02:17:56;;;;;;;24.10;8.18;;;;;;;6.12;91.41;100049.38;8456018;28;20044;-81
2022/10/10 02:21:58;;;;;;;26.83;8.95;;;;;;;6.10;91.76;100032.72;8438443;28;20043;-81
2022/10/10 02:25:59;;;;;;;20.38;8.23;;;;;;;6.12;91.63;100030.59;8435875;28;20564;-80
2022/10/10 02:30:02;;;;;;;17.63;7.78;;;;;;;6.16;91.85;100031.69;8480334;27;20050;-81
2022/10/10 02:34:11;;;;;;;18.60;8.30;;;;;;;6.16;91.67;100031.69;8505140;27;20066;-81
2022/10/10 02:38:14;;;;;;;19.02;8.40;;;;;;;6.16;92.07;100015.59;8495231;27;20048;-80
2022/10/10 02:42:17;;;;;;;20.83;8.35;;;;;;;6.14;92.06;100011.53;8508201;27;20039;-80
2022/10/10 02:46:18;;;;;;;22.40;8.75;;;;;;;6.13;91.98;100010.75;8494699;27;20046;-81
2022/10/10 02:50:20;;;;;;;19.65;8.50;;;;;;;6.12;92.12;100019.88;8516974;27;20054;-80
2022/10/10 02:54:21;;;;;;;17.42;8.55;;;;;;;6.09;92.14;100015.00;8501329;27;20043;-82
2022/10/10 02:58:22;;;;;;;22.60;9.65;;;;;;;6.11;92.29;100012.88;8494192;27;20043;-83
2022/10/10 03:02:23;;;;;;;24.83;9.10;;;;;;;6.12;92.30;100014.50;8500895;27;20043;-81
2022/10/10 03:06:24;;;;;;;16.02;8.63;;;;;;;6.11;92.31;100007.50;8506877;27;20032;-81
2022/10/10 03:10:25;;;;;;;18.63;9.38;;;;;;;6.08;92.21;100008.00;8459448;27;20047;-82
2022/10/10 03:14:26;;;;;;;19.70;9.77;;;;;;;6.06;92.27;99994.06;8482418;27;20547;-81
2022/10/10 03:18:27;;;;;;;19.33;8.95;;;;;;;6.04;92.28;99990.81;8516929;27;20040;-81
2022/10/10 03:22:29;;;;;;;19.38;9.55;;;;;;;5.99;92.67;99988.09;8501088;27;20133;-82
2022/10/10 03:26:30;;;;;;;24.92;9.40;;;;;;;5.97;92.72;99990.25;8461267;27;20047;-86
2022/10/10 03:30:31;;;;;;;22.13;9.85;;;;;;;5.99;92.73;99972.03;8498740;27;20041;-80
2022/10/10 03:34:32;;;;;;;20.20;9.75;;;;;;;5.97;92.78;99968.81;8473644;27;20130;-80
2022/10/10 03:38:33;;;;;;;34.33;9.25;;;;;;;5.99;92.68;99966.66;8487927;27;20066;-80
2022/10/10 03:42:34;;;;;;;20.05;9.50;;;;;;;5.98;92.62;99958.88;8510721;27;20423;-81
2022/10/10 03:46:35;;;;;;;18.60;9.52;;;;;;;5.99;92.64;99955.94;8485255;27;20147;-80
2022/10/10 03:50:36;;;;;;;17.25;9.75;;;;;;;6.01;92.76;99959.19;8520076;27;20482;-80
2022/10/10 03:54:40;;;;;;;25.30;10.48;;;;;;;6.03;92.75;99954.34;8509383;27;20046;-79
2022/10/10 03:58:41;;;;;;;22.40;9.32;;;;;;;6.04;92.58;99955.97;8414253;27;20050;-80
2022/10/10 04:02:42;;;;;;;20.08;9.45;;;;;;;6.04;92.57;99942.56;8474494;27;20042;-80
2022/10/10 04:06:43;;;;;;;19.02;9.10;;;;;;;6.02;92.45;99950.06;8458327;27;20055;-80
2022/10/10 04:10:47;;;;;;;24.90;8.77;;;;;;;6.01;92.46;99939.59;8501065;27;20046;-81
2022/10/10 04:14:49;;;;;;;16.50;8.77;;;;;;;5.98;92.87;99938.22;8504072;27;20055;-80
2022/10/10 04:18:49;;;;;;;21.20;9.75;;;;;;;5.98;92.70;99930.19;8450689;27;20043;-80
2022/10/10 04:22:50;;;;;;;20.23;9.00;;;;;;;5.96;92.60;99928.84;8509461;27;20042;-80
2022/10/10 04:26:52;;;;;;;24.17;9.25;;;;;;;5.96;92.56;99935.00;8506418;27;20070;-80
2022/10/10 04:30:55;;;;;;;23.35;9.32;;;;;;;5.94;92.51;99926.41;8511311;27;20042;-81
2022/10/10 04:34:55;;;;;;;18.75;8.80;;;;;;;5.90;92.49;99925.31;8513268;27;20049;-80
2022/10/10 04:38:59;;;;;;;19.92;9.68;;;;;;;5.89;92.45;99919.16;8506961;27;20095;-81
2022/10/10 04:43:00;;;;;;;23.88;9.90;;;;;;;5.89;92.62;99918.34;8498894;27;20407;-80
2022/10/10 04:47:01;;;;;;;24.52;9.98;;;;;;;5.88;92.53;99906.00;8505156;27;20055;-81
2022/10/10 04:51:02;;;;;;;24.55;9.73;;;;;;;5.83;92.77;99897.88;8460129;27;20090;-81
2022/10/10 04:55:04;;;;;;;25.00;9.73;;;;;;;5.80;92.73;99903.78;8510564;27;20058;-81
2022/10/10 04:59:05;;;;;;;24.17;10.23;;;;;;;5.80;92.94;99914.50;8474401;27;20055;-80
2022/10/10 05:03:06;;;;;;;21.48;9.85;;;;;;;5.78;93.05;99905.91;8510003;27;20046;-80
2022/10/10 05:07:07;;;;;;;21.45;10.65;;;;;;;5.78;93.11;99905.91;8502817;27;20035;-82
2022/10/10 05:11:08;;;;;;;19.33;10.43;;;;;;;5.76;93.24;99891.97;8498577;27;20042;-81
2022/10/10 05:15:12;;;;;;;30.25;11.35;;;;;;;5.73;93.40;99882.56;8486457;27;20073;-80
2022/10/10 05:19:13;;;;;;;26.50;10.77;;;;;;;5.72;93.47;99888.16;8511916;27;20051;-79
2022/10/10 05:23:14;;;;;;;28.60;11.30;;;;;;;5.72;93.56;99885.47;8463007;27;20142;-80
2022/10/10 05:27:25;;;;;;;26.42;11.93;;;;;;;5.70;93.78;99876.91;8506835;27;20084;-81
2022/10/10 05:31:27;;;;;;;32.75;12.38;;;;;;;5.73;93.77;99881.75;8505393;27;20047;-79
2022/10/10 05:35:34;;;;;;;27.33;12.20;;;;;;;5.70;93.72;99876.91;8476236;27;20054;-80
2022/10/10 05:39:37;;;;;;;25.52;13.18;;;;;;;5.71;93.79;99878.53;8500789;27;21632;-79
2022/10/10 05:43:38;;;;;;;24.05;12.52;;;;;;;5.72;93.86;99875.56;8483915;27;20047;-81
2022/10/10 05:47:39;;;;;;;25.75;12.15;;;;;;;5.74;93.98;99883.38;8502985;27;20035;-80
2022/10/10 05:51:41;;;;;;;29.20;12.95;;;;;;;5.75;93.93;99880.44;8510862;27;20472;-80
2022/10/10 05:55:43;;;;;;;33.47;13.32;;;;;;;5.79;93.95;99875.34;8499842;27;20054;-82
2022/10/10 05:59:45;;;;;;;29.63;12.30;;;;;;;5.83;93.72;99865.72;8495901;27;20070;-82
2022/10/10 06:03:51;;;;;;;30.67;12.73;;;;;;;5.84;93.81;99872.69;8509605;27;20100;-79
2022/10/10 06:07:54;;;;;;;26.93;13.23;;;;;;;5.85;94.04;99874.31;8500716;27;20035;-80
2022/10/10 06:11:55;;;;;;;32.20;13.57;;;;;;;5.89;93.70;99878.13;8495704;27;20039;-80
2022/10/10 06:15:56;;;;;;;27.75;14.00;;;;;;;5.92;93.99;99880.31;8496130;27;20487;-82
2022/10/10 06:19:57;;;;;;;30.80;13.70;;;;;;;5.97;93.91;99866.94;8510035;27;20100;-80
2022/10/10 06:23:58;;;;;;;25.60;12.77;;;;;;;6.01;93.94;99868.00;8499704;27;20049;-81
2022/10/10 06:28:00;;;;;;;31.95;14.38;;;;;;;6.06;93.69;99854.63;8483581;27;20039;-80
2022/10/10 06:32:01;;;;;;;29.17;13.32;;;;;;;6.12;93.64;99858.97;8495030;27;20149;-83
2022/10/10 06:36:06;;;;;;;32.13;14.02;;;;;;;6.19;93.81;99864.88;8494497;27;20160;-80
2022/10/10 06:40:08;;;;;;;31.05;14.80;;;;;;;6.27;93.37;99860.91;8498814;27;20047;-81
2022/10/10 06:44:09;;;;;;;31.60;14.18;;;;;;;6.34;93.57;99867.63;8473810;27;20042;-80
2022/10/10 06:48:12;;;;;;;32.42;14.65;;;;;;;6.44;93.35;99860.69;8499607;27;20038;-81
2022/10/10 06:52:13;;;;;;;32.03;14.20;;;;;;;6.53;93.38;99853.75;8478457;27;20073;-81
2022/10/10 06:56:20;;;;;;;30.17;14.45;;;;;;;6.61;93.18;99855.94;8450901;28;20433;-82
2022/10/10 07:00:24;;;;;;;30.17;14.95;;;;;;;6.71;92.95;99861.31;8443474;27;20050;-82
2022/10/10 07:04:26;;;;;;;27.52;14.75;;;;;;;6.83;92.74;99853.81;8518096;27;20049;-81
2022/10/10 07:08:28;;;;;;;26.30;13.98;;;;;;;6.93;92.59;99859.19;8521541;27;20035;-81
2022/10/10 07:12:32;;;;;;;32.30;14.27;;;;;;;7.04;92.22;99850.09;8449018;28;20454;-82
2022/10/10 07:16:33;;;;;;;36.15;14.35;;;;;;;7.13;91.99;99853.88;8458188;28;20059;-81
2022/10/10 07:20:35;;;;;;;31.08;15.10;;;;;;;7.22;92.15;99852.25;8452898;28;20495;-81
2022/10/10 07:24:38;;;;;;;29.48;13.77;;;;;;;7.37;91.84;99859.50;8473723;27;20047;-82
2022/10/10 07:28:39;;;;;;;29.88;14.02;;;;;;;7.47;91.66;99854.13;8490256;27;20058;-81
2022/10/10 07:32:41;;;;;;;29.77;15.23;;;;;;;7.60;91.43;99858.97;8479270;27;20062;-81
2022/10/10 07:36:45;;;;;;;37.80;14.50;;;;;;;7.73;91.19;99865.66;8485977;27;20047;-80
2022/10/10 07:40:46;;;;;;;29.10;14.55;;;;;;;7.82;91.20;99855.97;8485823;27;20174;-80
2022/10/10 07:44:47;;;;;;;28.73;13.43;;;;;;;7.95;91.06;99860.78;8438341;27;20053;-80
2022/10/10 07:48:50;;;;;;;29.98;13.25;;;;;;;8.06;90.68;99862.34;8497146;27;20517;-80
2022/10/10 07:52:51;;;;;;;31.20;13.88;;;;;;;8.22;90.54;99865.81;8505606;27;20062;-82
2022/10/10 07:56:54;;;;;;;30.30;13.55;;;;;;;8.40;90.20;99864.44;8498488;27;20050;-82
2022/10/10 08:01:04;;;;;;;25.73;13.10;;;;;;;8.53;89.94;99863.81;8499763;27;20049;-81
2022/10/10 08:05:06;;;;;;;27.15;13.18;;;;;;;8.65;89.55;99847.34;8527940;27;20384;-81
2022/10/10 08:09:07;;;;;;;24.83;12.45;;;;;;;8.80;89.37;99848.06;8509870;27;20517;-82
2022/10/10 08:13:08;;;;;;;26.42;12.38;;;;;;;8.96;89.11;99842.56;8499246;27;20130;-81
2022/10/10 08:17:09;;;;;;;25.73;12.23;;;;;;;9.11;88.69;99839.75;8445817;27;20043;-82
2022/10/10 08:21:12;;;;;;;26.08;11.75;;;;;;;9.27;88.30;99833.16;8499284;27;20051;-81
2022/10/10 08:25:13;;;;;;;22.08;10.95;;;;;;;9.41;87.93;99834.13;8477062;27;20055;-79
2022/10/10 08:29:14;;;;;;;25.20;11.85;;;;;;;9.58;87.89;99829.09;8498791;27;20054;-81
2022/10/10 08:33:18;;;;;;;29.30;11.50;;;;;;;9.75;87.93;99829.50;8498767;27;20035;-80
2022/10/10 08:37:19;;;;;;;22.98;11.45;;;;;;;9.90;87.54;99835.81;8462299;27;20564;-82
2022/10/10 08:41:26;;;;;;;29.45;11.15;;;;;;;10.00;87.02;99830.28;8498423;27;20039;-82
2022/10/10 08:45:27;;;;;;;21.38;10.48;;;;;;;10.17;86.62;99827.97;8498428;27;20078;-80
2022/10/10 08:49:33;;;;;;;29.75;11.15;;;;;;;10.33;86.63;99818.59;8508574;27;20043;-80
2022/10/10 08:53:43;;;;;;;23.90;10.48;;;;;;;10.43;86.32;99818.47;8463146;27;20086;-80
2022/10/10 08:57:52;;;;;;;22.77;10.90;;;;;;;10.59;86.01;99805.56;8494201;27;20054;-81
2022/10/10 09:01:54;;;;;;;;;;;;;;;10.78;85.46;99802.88;8498345;27;20058;-79
2022/10/10 09:06:09;;;;;;;22.88;9.98;;;;;;;10.96;85.18;99804.75;8479675;27;20014;-80
2022/10/10 09:10:10;;;;;;;24.90;9.57;;;;;;;11.10;84.77;99797.50;8437805;27;20061;-81
2022/10/10 09:14:32;;;;;;;19.67;10.65;;;;;;;11.15;84.58;99794.72;8497148;27;20113;-80
2022/10/10 09:18:48;;;;;;;23.92;9.68;;;;;;;11.35;84.13;99786.25;8497632;27;20438;-80
2022/10/10 09:23:02;;;;;;;23.75;9.68;;;;;;;11.60;83.65;99786.88;8442103;28;20055;-81
2022/10/10 09:27:05;;;;;;;25.05;9.98;;;;;;;11.79;83.19;99790.38;8434210;28;20059;-80
2022/10/10 09:31:22;;;;;;;23.98;9.73;;;;;;;11.88;83.06;99788.56;8453057;28;20050;-80
2022/10/10 09:35:27;;;;;;;23.05;9.52;;;;;;;12.12;83.06;99786.44;8413150;28;20074;-80
2022/10/10 09:39:31;;;;;;;19.38;9.00;;;;;;;12.41;82.07;99791.53;8431336;28;20039;-81
2022/10/10 09:43:33;;;;;;;21.38;9.07;;;;;;;12.67;81.36;99786.34;8439854;28;20139;-81
2022/10/10 09:47:34;;;;;;;20.63;9.25;;;;;;;12.83;80.42;99770.53;8437211;28;20517;-80
2022/10/10 09:51:35;;;;;;;18.98;8.25;;;;;;;12.99;80.42;99767.16;8427005;27;20059;-81
2022/10/10 09:55:37;;;;;;;14.88;7.47;;;;;;;13.06;79.77;99764.78;8504447;27;20135;-81
2022/10/10 09:59:39;;;;;;;20.98;8.15;;;;;;;13.23;80.00;99760.63;8495017;27;20104;-80
2022/10/10 10:03:41;;;;;;;17.88;7.63;;;;;;;13.36;79.15;99751.63;8475473;27;20055;-82
2022/10/10 10:07:47;;;;;;;16.55;7.43;;;;;;;13.53;78.51;99763.34;8494157;27;20055;-80
2022/10/10 10:11:55;;;;;;;18.65;8.70;;;;;;;13.62;78.16;99749.81;8486578;27;20103;-80
2022/10/10 10:16:12;;;;;;;13.48;7.32;;;;;;;13.62;77.50;99755.25;8507863;27;20055;-81
2022/10/10 10:20:28;;;;;;;23.10;8.05;;;;;;;13.75;77.26;99753.53;8517960;27;20051;-81
2022/10/10 10:24:36;;;;;;;16.42;6.80;;;;;;;14.01;76.83;99745.50;8503906;27;20054;-80
2022/10/10 10:28:41;;;;;;;19.00;7.45;;;;;;;14.31;75.52;99739.97;8505611;27;20506;-81
2022/10/10 10:32:57;;;;;;;21.42;7.38;;;;;;;14.33;75.46;99731.47;8502936;27;20143;-82
2022/10/10 10:37:16;;;;;;;20.35;8.00;;;;;;;14.40;75.42;99729.13;8506780;27;20804;-81
2022/10/10 10:41:49;;;;;;;13.38;7.28;;;;;;;14.47;75.47;99726.75;8487049;28;20055;-80
2022/10/10 10:45:59;;;;;;;21.23;7.60;;;;;;;14.51;75.41;99714.09;8336695;28;20072;-79
2022/10/10 10:50:09;;;;;;;18.25;6.95;;;;;;;14.47;75.47;99710.44;8357741;28;20089;-80
2022/10/10 10:54:31;;;;;;;17.58;6.35;;;;;;;14.51;75.41;99694.28;8363031;28;20053;-79
2022/10/10 10:59:05;;;;;;;13.60;7.03;;;;;;;14.58;75.07;99695.41;8364731;28;20049;-81
2022/10/10 11:03:33;;;;;;;16.77;7.18;;;;;;;14.64;75.19;99691.41;8363605;28;20050;-79
2022/10/10 11:07:51;;;;;;;16.05;7.45;;;;;;;14.68;74.70;99683.41;8354383;28;20486;-79
2022/10/10 11:12:16;;;;;;;15.40;6.32;;;;;;;14.70;74.66;99676.50;8357165;28;20145;-80
2022/10/10 11:16:33;;;;;;;14.23;7.85;;;;;;;14.85;75.08;99674.44;8357311;28;20533;-80
2022/10/10 11:20:40;;;;;;;14.43;6.93;;;;;;;14.96;73.87;99667.53;8395716;28;20047;-81
2022/10/10 11:25:00;;;;;;;12.23;6.70;;;;;;;15.05;73.69;99665.56;8436939;28;20048;-82
2022/10/10 11:29:05;;;;;;;15.63;6.75;;;;;;;15.14;73.40;99663.63;8427316;28;20067;-82
2022/10/10 11:33:19;;;;;;;18.30;7.80;;;;;;;15.22;72.95;99662.81;8392422;28;20071;-80
2022/10/10 11:37:24;;;;;;;15.40;6.22;;;;;;;15.27;72.12;99651.75;8409896;28;20532;-82
2022/10/10 11:41:39;;;;;;;13.85;6.65;;;;;;;15.31;72.29;99641.78;8361864;28;20131;-81
2022/10/10 11:45:45;;;;;;;12.35;6.70;;;;;;;15.34;72.38;99643.84;8408732;28;20044;-82
2022/10/10 11:50:04;;;;;;;12.63;6.93;;;;;;;15.36;72.54;99638.09;8393756;28;20044;-81
2022/10/10 11:54:15;;;;;;;20.15;7.80;;;;;;;15.44;72.19;99618.97;8404754;28;20052;-83
2022/10/10 11:58:26;;;;;;;15.50;6.70;;;;;;;15.55;71.72;99598.47;8380292;28;20475;-82
2022/10/10 12:02:32;;;;;;;16.23;6.25;;;;;;;15.67;71.25;99594.22;8420461;28;20072;-82
2022/10/10 12:06:46;;;;;;;16.60;6.90;;;;;;;15.77;71.18;99593.84;8449291;28;20066;-83
2022/10/10 12:10:56;;;;;;;17.05;7.03;;;;;;;15.97;70.61;99582.16;8429671;28;20163;-83
2022/10/10 12:15:00;;;;;;;15.73;7.00;;;;;;;16.15;70.12;99583.63;8459672;27;20047;-82
2022/10/10 12:19:13;;;;;;;16.10;6.85;;;;;;;16.21;69.49;99576.84;8521431;27;20107;-84
2022/10/10 12:23:32;;;;;;;13.93;6.65;;;;;;;16.27;69.62;99575.50;8497821;27;20070;-81
2022/10/10 12:27:45;;;;;;;11.90;6.68;;;;;;;16.34;69.71;99564.84;8532410;27;20106;-82
2022/10/10 12:32:29;;;;;;;17.90;6.78;;;;;;;16.44;68.87;99556.22;8463727;27;20568;-81
2022/10/10 12:36:30;;;;;;;12.63;6.30;;;;;;;16.50;68.70;99553.31;8411323;28;20177;-82
2022/10/10 12:40:32;;;;;;;20.50;6.60;;;;;;;16.49;66.76;99549.81;8435697;28;20546;-83
2022/10/10 12:44:33;;;;;;;20.13;6.60;;;;;;;16.50;67.17;99545.16;8382461;28;20511;-85
2022/10/10 12:48:35;;;;;;;16.73;6.30;;;;;;;16.46;66.84;99534.09;8434337;28;20047;-83
2022/10/10 12:52:46;;;;;;;14.38;6.90;;;;;;;16.38;67.87;99533.06;8426419;28;20766;-84
2022/10/10 12:56:47;;;;;;;16.67;6.88;;;;;;;16.30;68.31;99520.31;8417973;28;20051;-83
2022/10/10 13:00:49;;;;;;;12.05;6.13;;;;;;;16.21;68.63;99519.59;8417450;28;20048;-82
2022/10/10 13:04:54;;;;;;;11.63;5.93;;;;;;;16.18;68.70;99512.09;8420784;28;20052;-86
2022/10/10 13:08:55;;;;;;;17.60;6.43;;;;;;;16.15;69.02;99518.22;8430769;28;20048;-80
2022/10/10 13:13:13;;;;;;;13.70;7.03;;;;;;;16.12;69.54;99508.00;8487511;27;20112;-81
2022/10/10 13:17:27;;;;;;;13.90;6.90;;;;;;;16.09;69.79;99508.66;8523739;27;20047;-81
2022/10/10 13:21:33;;;;;;;13.60;6.18;;;;;;;16.21;70.12;99495.09;8535617;27;20053;-83
2022/10/10 13:25:37;;;;;;;23.33;7.22;;;;;;;16.31;70.34;99489.22;8517142;27;20111;-83
2022/10/10 13:29:39;;;;;;;15.90;6.97;;;;;;;16.32;69.99;99496.25;8482459;27;20102;-82
2022/10/10 13:33:40;;;;;;;18.13;9.25;;;;;;;16.29;70.76;99496.91;8504131;27;20126;-82
2022/10/10 13:37:42;;;;;;;14.27;7.03;;;;;;;16.26;71.41;99485.91;8474696;27;20047;-82
2022/10/10 13:42:07;;;;;;;19.40;7.82;;;;;;;16.24;71.91;99486.22;8439266;28;20074;-82
2022/10/10 13:46:19;;;;;;;19.00;7.00;;;;;;;16.21;72.74;99478.72;8443690;28;20051;-82
2022/10/10 13:50:30;;;;;;;15.15;6.43;;;;;;;16.21;72.43;99473.28;8453108;28;20048;-82
2022/10/10 13:55:12;;;;;;;17.90;8.63;;;;;;;16.25;71.79;99479.66;8440237;28;20043;-82
2022/10/10 13:59:16;;;;;;;16.35;6.72;;;;;;;16.24;71.14;99467.16;8367802;28;20880;-82
2022/10/10 14:03:18;;;;;;;14.32;5.85;;;;;;;16.26;69.65;99459.44;8360864;28;20111;-83
2022/10/10 14:07:22;;;;;;;9.95;5.18;;;;;;;16.24;69.21;99461.69;8364761;28;20052;-83
2022/10/10 14:11:25;;;;;;;20.63;5.68;;;;;;;16.25;68.37;99457.06;8345645;28;20082;-85
2022/10/10 14:15:41;;;;;;;19.48;9.35;;;;;;;16.24;68.36;99444.56;8360378;28;20094;-82
2022/10/10 14:19:44;;;;;;;12.27;6.03;;;;;;;16.16;68.91;99448.97;8388770;28;20088;-83
2022/10/10 14:23:47;;;;;;;12.43;5.10;;;;;;;16.14;68.67;99451.22;8371800;28;20049;-84
2022/10/10 14:27:47;;;;;;;11.10;7.43;;;;;;;16.09;69.33;99448.72;8362649;28;20059;-84
2022/10/10 14:31:48;;;;;;;12.20;6.50;;;;;;;16.04;69.36;99457.09;8362427;28;20095;-82
2022/10/10 14:35:50;;;;;;;13.32;6.07;;;;;;;16.00;69.90;99450.75;8474508;27;20468;-83
2022/10/10 14:39:51;;;;;;;12.77;6.07;;;;;;;15.95;70.25;99442.78;8493428;27;20031;-83
2022/10/10 14:43:52;;;;;;;15.40;6.07;;;;;;;15.92;70.67;99438.00;8498308;27;20051;-83
2022/10/10 14:47:54;;;;;;;11.73;5.97;;;;;;;15.87;71.00;99436.28;8475350;27;20137;-83
2022/10/10 14:51:54;;;;;;;15.73;6.22;;;;;;;15.87;71.09;99432.75;8524639;27;20134;-82
2022/10/10 14:55:55;;;;;;;20.08;6.90;;;;;;;15.92;70.82;99433.34;8486075;27;20047;-81
2022/10/10 14:59:56;;;;;;;13.00;6.35;;;;;;;15.96;70.69;99438.94;8512217;27;20494;-81
2022/10/10 15:03:58;;;;;;;11.60;6.05;;;;;;;16.04;70.58;99429.88;8502517;27;20047;-82
2022/10/10 15:07:58;;;;;;;11.68;6.60;;;;;;;16.10;70.42;99431.25;8510293;27;20114;-82
2022/10/10 15:12:00;;;;;;;11.25;6.25;;;;;;;16.14;70.07;99434.88;8511069;27;20059;-82
2022/10/10 15:16:00;;;;;;;12.52;6.00;;;;;;;16.16;70.36;99437.28;8507814;27;20426;-82
2022/10/10 15:20:04;;;;;;;12.75;6.57;;;;;;;16.14;70.53;99423.97;8527929;27;20053;-82
2022/10/10 15:24:07;;;;;;;13.50;7.78;;;;;;;16.16;69.53;99429.91;8468220;27;20063;-83
2022/10/10 15:28:09;;;;;;;17.00;8.95;;;;;;;16.14;70.00;99429.44;8525527;27;20530;-82
2022/10/10 15:32:09;;;;;;;20.58;8.27;;;;;;;16.12;68.71;99431.72;8516107;27;20050;-83
2022/10/10 15:36:11;;;;;;;13.98;8.10;;;;;;;16.09;68.12;99426.94;8500178;27;20054;-82
2022/10/10 15:40:13;;;;;;;17.85;7.53;;;;;;;16.03;67.98;99429.06;8505277;27;20061;-83
2022/10/10 15:44:19;;;;;;;11.13;5.90;;;;;;;15.96;67.28;99428.03;8517549;27;20055;-83
2022/10/10 15:48:21;;;;;;;16.80;9.02;;;;;;;15.90;67.63;99423.94;8485040;27;20037;-86
2022/10/10 15:52:23;;;;;;;13.80;6.95;;;;;;;15.77;68.15;99427.72;8516899;27;20103;-83
2022/10/10 15:56:25;;;;;;;16.20;6.70;;;;;;;15.60;68.85;99421.31;8507833;27;20096;-82
2022/10/10 16:00:26;;;;;;;16.33;6.35;;;;;;;15.47;68.13;99422.38;8522769;27;20066;-86
2022/10/10 16:04:29;;;;;;;12.55;6.25;;;;;;;15.43;67.32;99426.91;8511388;27;20488;-84
2022/10/10 16:08:30;;;;;;;13.48;6.45;;;;;;;15.36;67.86;99437.50;8516844;27;20055;-83
2022/10/10 16:12:31;;;;;;;22.92;7.45;;;;;;;15.21;68.23;99429.94;8511559;27;20395;-83
2022/10/10 16:16:32;;;;;;;19.65;7.15;;;;;;;15.09;68.58;99432.59;8473228;27;20142;-84
2022/10/10 16:20:33;;;;;;;19.67;8.52;;;;;;;14.94;68.77;99441.31;8519746;27;20054;-82
2022/10/10 16:24:35;;;;;;;17.25;8.50;;;;;;;14.85;68.92;99443.31;8475897;27;20074;-82
2022/10/10 16:28:36;;;;;;;22.45;9.68;;;;;;;14.73;69.18;99436.63;8510778;27;20054;-83
2022/10/10 16:32:37;;;;;;;13.52;7.82;;;;;;;14.62;69.43;99446.28;8508070;27;20084;-83
2022/10/10 16:36:38;;;;;;;18.35;7.35;;;;;;;14.58;69.61;99450.78;8487283;27;20495;-85
2022/10/10 16:40:39;;;;;;;17.13;7.20;;;;;;;14.51;69.85;99445.06;8519463;27;20073;-83
2022/10/10 16:44:40;;;;;;;13.63;7.78;;;;;;;14.38;70.58;99444.13;8513442;27;20046;-82
2022/10/10 16:48:42;;;;;;;10.88;7.15;;;;;;;14.24;71.44;99435.38;8506790;27;20035;-83
2022/10/10 16:52:43;;;;;;;20.27;7.00;;;;;;;14.13;72.07;99438.75;8511609;27;20136;-84
2022/10/10 16:56:44;;;;;;;13.77;7.07;;;;;;;14.02;72.73;99442.94;8509198;27;20043;-83
2022/10/10 17:00:45;;;;;;;17.80;9.20;;;;;;;13.88;73.36;99443.94;8512452;27;20050;-83
2022/10/10 17:04:46;;;;;;;18.35;9.13;;;;;;;13.80;73.76;99442.00;8513271;27;20479;-83
2022/10/10 17:08:48;;;;;;;20.40;9.90;;;;;;;13.70;74.35;99445.06;8507382;27;20043;-84
2022/10/10 17:12:49;;;;;;;17.88;9.02;;;;;;;13.63;74.52;99436.63;8515838;27;20043;-83
2022/10/10 17:16:50;;;;;;;19.05;9.18;;;;;;;13.58;74.99;99439.50;8518769;27;20055;-82
2022/10/10 17:20:51;;;;;;;15.18;9.18;;;;;;;13.55;74.91;99442.84;8521139;27;20137;-83
2022/10/10 17:24:52;;;;;;;25.98;10.02;;;;;;;13.51;75.37;99447.31;8520000;27;20046;-82
2022/10/10 17:28:55;;;;;;;34.03;15.13;;;;;;;13.47;75.46;99443.66;8515079;27;20042;-82
2022/10/10 17:32:56;;;;;;;40.72;18.35;;;;;;;13.40;75.86;99449.53;8478096;27;20054;-82
2022/10/10 17:36:57;;;;;;;27.08;13.90;;;;;;;13.38;75.99;99445.53;8513363;27;20050;-82
2022/10/10 17:40:58;;;;;;;39.92;16.20;;;;;;;13.35;76.18;99451.63;8474266;27;20130;-80
2022/10/10 17:44:59;;;;;;;25.08;13.75;;;;;;;13.34;76.10;99460.88;8471144;27;20077;-81
2022/10/10 17:49:01;;;;;;;32.53;16.08;;;;;;;13.34;76.09;99450.00;8495521;27;20094;-83
2022/10/10 17:53:04;;;;;;;26.55;12.18;;;;;;;13.36;75.87;99442.38;8490507;27;20050;-82
2022/10/10 17:57:09;;;;;;;22.48;12.63;;;;;;;13.36;75.74;99436.94;8509038;27;20055;-84
2022/10/10 18:01:12;;;;;;;23.95;12.70;;;;;;;13.32;75.84;99441.41;8510220;27;20460;-82
2022/10/10 18:05:13;;;;;;;23.60;12.98;;;;;;;13.28;76.09;99451.28;8514205;27;20118;-82
2022/10/10 18:09:15;;;;;;;27.98;13.60;;;;;;;13.25;76.23;99446.50;8504376;27;20070;-83
2022/10/10 18:13:17;;;;;;;29.13;12.57;;;;;;;13.18;76.55;99448.88;8501059;27;20470;-84
2022/10/10 18:17:18;;;;;;;31.25;10.75;;;;;;;13.14;76.44;99442.50;8508290;27;20129;-83
2022/10/10 18:21:22;;;;;;;23.80;11.05;;;;;;;13.10;76.68;99445.81;8514078;27;20038;-84
2022/10/10 18:25:26;;;;;;;22.15;12.68;;;;;;;13.07;76.62;99442.94;8462680;27;20551;-82
2022/10/10 18:29:27;;;;;;;38.25;18.17;;;;;;;13.01;77.06;99453.13;8503423;27;20055;-83
2022/10/10 18:33:29;;;;;;;34.13;17.38;;;;;;;12.93;77.32;99451.22;8482078;27;20051;-82
2022/10/10 18:37:30;;;;;;;44.28;20.42;;;;;;;12.88;77.40;99448.66;8503968;27;20072;-83
2022/10/10 18:41:33;;;;;;;40.05;20.58;;;;;;;12.83;77.67;99456.94;8489846;27;20396;-83
2022/10/10 18:45:34;;;;;;;28.98;15.35;;;;;;;12.79;77.98;99455.97;8506833;27;20047;-82
2022/10/10 18:49:36;;;;;;;28.35;13.70;;;;;;;12.77;78.09;99450.03;8513870;27;20062;-82
2022/10/10 18:53:42;;;;;;;32.55;13.48;;;;;;;12.74;78.17;99464.25;8494531;27;20055;-81
2022/10/10 18:57:43;;;;;;;25.40;11.30;;;;;;;12.72;78.39;99450.19;8504910;27;20125;-82